Time;durP1;ratioP1;P1;durP2;ratioP2;P2;SDS_P1;SDS_P2;PMS_P1;PMS_P2;Temp;Humidity;BMP_temperature;BMP_pressure;BME280_temperature;BME280_humidity;BME280_pressure;Samples;Min_cycle;Max_cycle;Signal;HPM_P1;HPM_P2
2022/07/25 00:01:21;;;;;;;8.70;7.90;;;;;;;;;;5057411;28;20260;-76
2022/07/25 00:03:48;;;;;;;8.00;7.30;;;;;;;;;;5061724;28;20240;-75
2022/07/25 00:06:14;;;;;;;8.20;7.40;;;;;;;;;;5061712;28;20208;-74
2022/07/25 00:08:40;;;;;;;7.23;6.60;;;;;;;;;;5064941;28;20176;-74
2022/07/25 00:11:06;;;;;;;7.70;7.03;;;;;;;;;;5067206;28;20193;-74
2022/07/25 00:13:33;;;;;;;7.43;6.73;;;;;;;;;;5065831;28;20274;-74
2022/07/25 00:15:59;;;;;;;7.40;6.80;;;;;;;;;;5065405;28;20265;-74
2022/07/25 00:18:25;;;;;;;6.60;6.00;;;;;;;;;;5070613;28;20189;-73
2022/07/25 00:20:52;;;;;;;7.10;6.40;;;;;;;;;;5071367;28;20180;-74
2022/07/25 00:23:18;;;;;;;7.23;6.57;;;;;;;;;;5075451;28;20197;-73
2022/07/25 00:25:44;;;;;;;7.57;6.87;;;;;;;;;;5072210;28;20217;-74
2022/07/25 00:28:10;;;;;;;7.37;6.70;;;;;;;;;;5073569;28;20388;-74
2022/07/25 00:30:36;;;;;;;7.63;6.47;;;;;;;;;;5061232;28;22194;-74
2022/07/25 00:33:03;;;;;;;7.17;6.47;;;;;;;;;;5070715;28;20197;-73
2022/07/25 00:35:29;;;;;;;7.37;6.67;;;;;;;;;;5071393;28;20272;-75
2022/07/25 00:37:55;;;;;;;7.10;6.50;;;;;;;;;;5064297;28;20178;-76
2022/07/25 00:40:21;;;;;;;7.53;6.90;;;;;;;;;;5064924;28;20208;-74
2022/07/25 00:42:47;;;;;;;7.07;6.47;;;;;;;;;;5066172;28;20201;-74
2022/07/25 00:45:13;;;;;;;6.90;6.30;;;;;;;;;;5065597;28;20215;-76
2022/07/25 00:47:40;;;;;;;6.60;6.00;;;;;;;;;;5071553;28;20193;-74
2022/07/25 00:50:06;;;;;;;7.33;6.67;;;;;;;;;;5067204;28;20188;-74
2022/07/25 00:52:33;;;;;;;6.80;6.20;;;;;;;;;;5062280;28;20283;-74
2022/07/25 00:54:59;;;;;;;7.23;6.60;;;;;;;;;;5064471;28;20196;-74
2022/07/25 00:57:25;;;;;;;7.43;6.80;;;;;;;;;;5064351;28;20670;-73
2022/07/25 00:59:52;;;;;;;7.07;6.30;;;;;;;;;;5066574;28;20679;-76
2022/07/25 01:02:18;;;;;;;7.93;7.03;;;;;;;;;;5064415;28;20285;-75
2022/07/25 01:04:44;;;;;;;7.20;6.60;;;;;;;;;;5076365;28;20216;-74
2022/07/25 01:07:10;;;;;;;7.50;6.90;;;;;;;;;;5067486;28;20189;-74
2022/07/25 01:09:36;;;;;;;7.07;6.47;;;;;;;;;;5071147;28;20188;-73
2022/07/25 01:12:03;;;;;;;7.10;6.60;;;;;;;;;;5063965;28;20178;-74
2022/07/25 01:14:29;;;;;;;7.40;6.70;;;;;;;;;;5075074;28;20266;-74
2022/07/25 01:16:55;;;;;;;7.50;6.80;;;;;;;;;;5066852;28;20181;-74
2022/07/25 01:19:21;;;;;;;7.73;6.93;;;;;;;;;;5066390;28;20182;-74
2022/07/25 01:21:48;;;;;;;8.90;7.00;;;;;;;;;;5066959;28;20220;-75
2022/07/25 01:24:14;;;;;;;8.00;7.30;;;;;;;;;;5064527;28;20185;-74
2022/07/25 01:26:40;;;;;;;7.30;6.70;;;;;;;;;;5071556;28;20199;-73
2022/07/25 01:29:06;;;;;;;7.97;7.00;;;;;;;;;;5065619;28;20190;-78
2022/07/25 01:31:32;;;;;;;7.63;7.03;;;;;;;;;;5057212;28;20202;-75
2022/07/25 01:33:58;;;;;;;8.37;7.43;;;;;;;;;;5070776;28;20213;-76
2022/07/25 01:36:25;;;;;;;8.00;7.20;;;;;;;;;;5059754;28;20655;-76
2022/07/25 01:38:51;;;;;;;7.67;6.97;;;;;;;;;;5062967;28;20224;-76
2022/07/25 01:41:17;;;;;;;8.20;7.40;;;;;;;;;;5065640;28;20181;-77
2022/07/25 01:43:43;;;;;;;7.73;6.67;;;;;;;;;;5068156;28;20205;-76
2022/07/25 01:46:09;;;;;;;7.70;6.80;;;;;;;;;;5068724;28;20268;-76
2022/07/25 01:48:36;;;;;;;8.10;7.23;;;;;;;;;;5068544;28;20193;-76
2022/07/25 01:51:02;;;;;;;7.70;7.00;;;;;;;;;;5064370;28;20625;-76
2022/07/25 01:53:28;;;;;;;7.73;7.03;;;;;;;;;;5058805;28;20783;-76
2022/07/25 01:55:54;;;;;;;7.10;6.50;;;;;;;;;;5065304;28;20185;-75
2022/07/25 01:58:21;;;;;;;7.77;7.03;;;;;;;;;;5066007;28;20193;-75
2022/07/25 02:00:47;;;;;;;7.43;6.73;;;;;;;;;;5067896;28;20200;-75
2022/07/25 02:03:28;;;;;;;7.23;6.63;;;;;;;;;;5065900;28;20213;-75
2022/07/25 02:05:55;;;;;;;7.53;6.83;;;;;;;;;;5061048;28;20219;-75
2022/07/25 02:08:22;;;;;;;7.70;7.00;;;;;;;;;;5066926;28;20185;-75
2022/07/25 02:10:48;;;;;;;8.33;7.40;;;;;;;;;;5060834;28;20205;-76
2022/07/25 02:13:14;;;;;;;9.27;8.10;;;;;;;;;;5061422;28;20243;-76
2022/07/25 02:15:40;;;;;;;9.07;7.73;;;;;;;;;;5067927;28;20593;-76
2022/07/25 02:18:07;;;;;;;10.13;7.57;;;;;;;;;;5066629;28;20188;-75
2022/07/25 02:20:33;;;;;;;10.47;9.57;;;;;;;;;;5045612;28;20194;-75
2022/07/25 02:22:59;;;;;;;9.30;8.40;;;;;;;;;;5063059;28;20288;-76
2022/07/25 02:25:25;;;;;;;8.93;8.13;;;;;;;;;;5067482;28;20185;-76
2022/07/25 02:27:51;;;;;;;8.97;8.07;;;;;;;;;;5063634;28;20629;-76
2022/07/25 02:30:17;;;;;;;9.23;8.43;;;;;;;;;;5058440;28;20188;-76
2022/07/25 02:32:43;;;;;;;8.97;8.07;;;;;;;;;;5061996;28;20233;-75
2022/07/25 02:35:10;;;;;;;8.30;7.43;;;;;;;;;;5068850;28;20177;-76
2022/07/25 02:37:36;;;;;;;7.90;7.20;;;;;;;;;;5062484;28;20189;-76
2022/07/25 02:40:02;;;;;;;7.60;6.90;;;;;;;;;;5067763;28;20355;-76
2022/07/25 02:42:28;;;;;;;9.20;8.40;;;;;;;;;;5058227;28;20209;-76
2022/07/25 02:44:54;;;;;;;9.87;8.97;;;;;;;;;;5055794;28;20256;-75
2022/07/25 02:47:20;;;;;;;10.23;8.90;;;;;;;;;;5059026;28;20689;-76
2022/07/25 02:49:47;;;;;;;8.87;8.03;;;;;;;;;;5062140;28;20234;-75
2022/07/25 02:52:13;;;;;;;8.13;7.43;;;;;;;;;;5063434;28;20209;-75
2022/07/25 02:54:39;;;;;;;8.20;7.50;;;;;;;;;;5065290;28;20213;-75
2022/07/25 02:57:05;;;;;;;7.93;7.20;;;;;;;;;;5060009;28;20218;-76
2022/07/25 02:59:31;;;;;;;8.50;7.70;;;;;;;;;;5058012;28;20178;-76
2022/07/25 03:01:57;;;;;;;8.57;7.77;;;;;;;;;;5052331;28;20181;-75
2022/07/25 03:04:23;;;;;;;8.50;7.80;;;;;;;;;;5059598;28;20192;-76
2022/07/25 03:06:49;;;;;;;8.20;7.40;;;;;;;;;;5062217;28;20247;-75
2022/07/25 03:09:16;;;;;;;9.00;8.10;;;;;;;;;;5057313;28;20394;-76
2022/07/25 03:11:42;;;;;;;8.93;8.13;;;;;;;;;;5061687;28;20193;-75
2022/07/25 03:14:08;;;;;;;8.10;7.40;;;;;;;;;;5064303;28;20214;-76
2022/07/25 03:16:34;;;;;;;9.13;8.33;;;;;;;;;;5065877;28;20254;-76
2022/07/25 03:19:01;;;;;;;10.33;9.33;;;;;;;;;;5059684;28;20573;-76
2022/07/25 03:21:27;;;;;;;11.60;10.40;;;;;;;;;;5060266;28;20185;-76
2022/07/25 03:23:53;;;;;;;10.23;9.10;;;;;;;;;;5061360;28;20204;-76
2022/07/25 03:26:19;;;;;;;9.70;8.83;;;;;;;;;;5057436;28;20650;-76
2022/07/25 03:28:46;;;;;;;10.40;9.43;;;;;;;;;;5063264;28;20181;-76
2022/07/25 03:31:12;;;;;;;10.20;9.30;;;;;;;;;;5059831;28;20217;-76
2022/07/25 03:33:38;;;;;;;9.87;8.97;;;;;;;;;;5059260;28;20263;-76
2022/07/25 03:36:04;;;;;;;10.47;9.40;;;;;;;;;;5055097;28;20216;-76
2022/07/25 03:38:30;;;;;;;9.87;8.97;;;;;;;;;;5061143;28;20234;-76
2022/07/25 03:40:57;;;;;;;9.87;8.87;;;;;;;;;;5059277;28;20292;-76
2022/07/25 03:43:24;;;;;;;9.77;8.87;;;;;;;;;;5062542;28;20207;-76
2022/07/25 03:45:50;;;;;;;8.67;7.87;;;;;;;;;;5063502;28;20670;-76
2022/07/25 03:48:16;;;;;;;9.00;8.20;;;;;;;;;;5065674;28;20352;-76
2022/07/25 03:50:42;;;;;;;9.10;8.30;;;;;;;;;;5059190;28;20213;-75
2022/07/25 03:53:08;;;;;;;8.77;7.97;;;;;;;;;;5072508;28;20208;-76
2022/07/25 03:55:35;;;;;;;7.97;7.27;;;;;;;;;;5068833;28;20178;-76
2022/07/25 03:58:01;;;;;;;8.43;7.63;;;;;;;;;;5051617;28;20177;-76
2022/07/25 04:00:27;;;;;;;9.07;8.17;;;;;;;;;;5062767;28;20177;-75
2022/07/25 04:02:53;;;;;;;8.33;7.57;;;;;;;;;;5059547;28;20651;-76
2022/07/25 04:05:19;;;;;;;9.13;8.33;;;;;;;;;;5063595;28;20268;-76
2022/07/25 04:07:45;;;;;;;8.43;7.73;;;;;;;;;;5061764;28;20185;-76
2022/07/25 04:10:11;;;;;;;8.93;8.03;;;;;;;;;;5064957;28;20297;-75
2022/07/25 04:12:38;;;;;;;8.73;7.93;;;;;;;;;;5067042;28;20200;-75
2022/07/25 04:15:04;;;;;;;8.83;8.00;;;;;;;;;;5070651;28;20176;-76
2022/07/25 04:17:30;;;;;;;9.23;8.33;;;;;;;;;;5063985;28;20235;-76
2022/07/25 04:19:56;;;;;;;9.57;7.90;;;;;;;;;;5062845;28;20186;-76
2022/07/25 04:22:22;;;;;;;8.73;7.93;;;;;;;;;;5062744;28;20210;-76
2022/07/25 04:24:49;;;;;;;9.00;8.20;;;;;;;;;;5073036;28;20216;-77
2022/07/25 04:27:15;;;;;;;8.90;8.10;;;;;;;;;;5079131;28;20698;-76
2022/07/25 04:29:41;;;;;;;9.10;8.30;;;;;;;;;;5075977;28;20283;-76
2022/07/25 04:32:07;;;;;;;10.23;9.23;;;;;;;;;;5069849;28;20186;-76
2022/07/25 04:34:34;;;;;;;9.73;8.83;;;;;;;;;;5065906;28;20201;-75
2022/07/25 04:37:00;;;;;;;11.87;9.47;;;;;;;;;;5068288;28;20533;-76
2022/07/25 04:39:26;;;;;;;13.43;9.30;;;;;;;;;;5062088;28;20639;-76
2022/07/25 04:41:52;;;;;;;14.43;9.57;;;;;;;;;;5068020;28;20890;-76
2022/07/25 04:44:18;;;;;;;13.70;10.10;;;;;;;;;;5068223;28;20185;-76
2022/07/25 04:46:44;;;;;;;10.80;9.70;;;;;;;;;;5056030;28;20185;-75
2022/07/25 04:49:11;;;;;;;9.47;8.60;;;;;;;;;;5057738;28;20181;-76
2022/07/25 04:51:37;;;;;;;10.40;9.30;;;;;;;;;;5055602;28;20578;-76
2022/07/25 04:54:03;;;;;;;9.43;8.47;;;;;;;;;;5056953;28;20280;-76
2022/07/25 04:56:29;;;;;;;10.47;8.87;;;;;;;;;;5054913;28;20272;-77
2022/07/25 04:58:56;;;;;;;9.83;8.83;;;;;;;;;;5057816;28;20212;-75
2022/07/25 05:01:22;;;;;;;9.17;8.37;;;;;;;;;;5058659;28;20612;-77
2022/07/25 05:03:48;;;;;;;10.70;9.70;;;;;;;;;;5059298;28;20216;-76
2022/07/25 05:06:14;;;;;;;9.70;8.87;;;;;;;;;;5058658;28;20207;-76
2022/07/25 05:08:40;;;;;;;9.17;8.27;;;;;;;;;;5059174;28;20277;-76
2022/07/25 05:11:06;;;;;;;9.97;8.97;;;;;;;;;;5061331;28;20186;-77
2022/07/25 05:13:32;;;;;;;10.70;9.70;;;;;;;;;;5062008;28;20213;-76
2022/07/25 05:15:59;;;;;;;11.37;10.27;;;;;;;;;;5066230;28;20225;-76
2022/07/25 05:18:25;;;;;;;11.23;10.10;;;;;;;;;;5066131;28;20602;-76
2022/07/25 05:20:51;;;;;;;10.77;9.67;;;;;;;;;;5064321;28;20720;-76
2022/07/25 05:23:17;;;;;;;10.33;9.43;;;;;;;;;;5063771;28;20296;-76
2022/07/25 05:25:43;;;;;;;10.37;9.40;;;;;;;;;;5061356;28;20578;-76
2022/07/25 05:28:10;;;;;;;10.27;9.37;;;;;;;;;;5059497;28;20209;-76
2022/07/25 05:30:36;;;;;;;10.13;9.23;;;;;;;;;;5059758;28;20178;-75
2022/07/25 05:33:02;;;;;;;10.00;9.00;;;;;;;;;;5058830;28;20300;-75
2022/07/25 05:35:28;;;;;;;9.80;8.80;;;;;;;;;;5068941;28;20177;-76
2022/07/25 05:37:55;;;;;;;9.97;8.83;;;;;;;;;;5066231;28;20576;-75
2022/07/25 05:40:21;;;;;;;9.40;8.50;;;;;;;;;;5068075;28;20181;-77
2022/07/25 05:42:48;;;;;;;10.63;8.73;;;;;;;;;;5062436;28;20555;-77
2022/07/25 05:45:14;;;;;;;10.37;8.93;;;;;;;;;;5063704;28;20673;-76
2022/07/25 05:47:40;;;;;;;9.23;8.37;;;;;;;;;;5058786;28;20185;-74
2022/07/25 05:50:07;;;;;;;9.33;8.43;;;;;;;;;;5063293;28;20185;-75
2022/07/25 05:52:33;;;;;;;10.80;7.90;;;;;;;;;;5061710;28;21748;-76
2022/07/25 05:54:59;;;;;;;9.83;8.93;;;;;;;;;;5045528;28;20210;-75
2022/07/25 05:57:26;;;;;;;12.17;9.20;;;;;;;;;;5059174;28;20181;-76
2022/07/25 05:59:52;;;;;;;10.00;8.93;;;;;;;;;;5057684;28;20192;-76
2022/07/25 06:02:18;;;;;;;11.37;10.20;;;;;;;;;;5061338;28;20258;-77
2022/07/25 06:04:45;;;;;;;10.50;9.50;;;;;;;;;;5064812;28;20272;-76
2022/07/25 06:07:11;;;;;;;20.50;10.57;;;;;;;;;;5064675;28;20708;-75
2022/07/25 06:09:37;;;;;;;11.87;10.57;;;;;;;;;;5060281;28;20195;-75
2022/07/25 06:12:04;;;;;;;12.63;9.60;;;;;;;;;;5066285;28;20563;-75
2022/07/25 06:14:30;;;;;;;26.20;10.97;;;;;;;;;;5066684;28;20677;-75
2022/07/25 06:16:56;;;;;;;10.80;9.53;;;;;;;;;;5069522;28;20427;-75
2022/07/25 06:19:22;;;;;;;10.87;9.87;;;;;;;;;;5067370;28;20177;-76
2022/07/25 06:21:49;;;;;;;12.13;10.93;;;;;;;;;;5070001;28;20173;-76
2022/07/25 06:24:15;;;;;;;13.73;10.97;;;;;;;;;;5081921;28;20185;-76
2022/07/25 06:26:41;;;;;;;13.50;10.83;;;;;;;;;;5073701;28;20185;-76
2022/07/25 06:29:07;;;;;;;11.60;10.50;;;;;;;;;;5058877;28;20193;-76
2022/07/25 06:31:33;;;;;;;11.20;10.00;;;;;;;;;;5066981;28;20238;-75
2022/07/25 06:34:00;;;;;;;12.67;11.37;;;;;;;;;;5065718;28;20221;-75
2022/07/25 06:36:26;;;;;;;13.07;11.87;;;;;;;;;;5065784;28;20524;-76
2022/07/25 06:38:52;;;;;;;10.97;9.80;;;;;;;;;;5062206;28;20205;-76
2022/07/25 06:41:18;;;;;;;10.30;9.40;;;;;;;;;;5065755;28;20180;-76
2022/07/25 06:43:44;;;;;;;11.47;9.43;;;;;;;;;;5067217;28;20612;-75
2022/07/25 06:46:11;;;;;;;10.43;9.43;;;;;;;;;;5066243;28;20198;-75
2022/07/25 06:48:37;;;;;;;12.90;9.20;;;;;;;;;;5069785;28;20189;-75
2022/07/25 06:51:03;;;;;;;10.23;8.97;;;;;;;;;;5069704;28;20197;-75
2022/07/25 06:53:29;;;;;;;11.47;9.60;;;;;;;;;;5069516;28;20221;-76
2022/07/25 06:55:56;;;;;;;10.10;9.17;;;;;;;;;;5068769;28;20256;-77
2022/07/25 06:58:22;;;;;;;10.23;9.23;;;;;;;;;;5063828;28;20197;-77
2022/07/25 07:00:49;;;;;;;10.40;9.30;;;;;;;;;;5057426;28;20181;-76
2022/07/25 07:03:15;;;;;;;9.73;8.73;;;;;;;;;;5068033;28;20213;-76
2022/07/25 07:05:41;;;;;;;10.33;9.33;;;;;;;;;;5061393;28;20827;-76
2022/07/25 07:08:07;;;;;;;10.00;9.00;;;;;;;;;;5066043;28;20185;-77
2022/07/25 07:10:33;;;;;;;10.70;9.10;;;;;;;;;;5059073;28;20669;-76
2022/07/25 07:13:03;;;;;;;9.40;8.53;;;;;;;;;;5059651;28;20308;-76
2022/07/25 07:15:30;;;;;;;10.37;9.13;;;;;;;;;;5063410;28;20187;-76
2022/07/25 07:17:56;;;;;;;10.33;8.33;;;;;;;;;;5058843;28;20191;-76
2022/07/25 07:20:22;;;;;;;9.73;8.73;;;;;;;;;;5064044;28;20181;-76
2022/07/25 07:22:49;;;;;;;10.70;8.73;;;;;;;;;;5071200;28;20263;-75
2022/07/25 07:25:16;;;;;;;9.57;8.57;;;;;;;;;;5070585;28;20179;-76
2022/07/25 07:27:42;;;;;;;10.63;8.40;;;;;;;;;;5057151;28;20647;-77
2022/07/25 07:30:09;;;;;;;11.13;9.00;;;;;;;;;;5062793;28;20177;-75
2022/07/25 07:32:35;;;;;;;10.07;8.67;;;;;;;;;;5067458;28;20575;-76
2022/07/25 07:35:02;;;;;;;9.40;8.60;;;;;;;;;;5062231;28;20201;-76
2022/07/25 07:37:28;;;;;;;9.83;8.07;;;;;;;;;;5070262;28;20185;-75
2022/07/25 07:39:54;;;;;;;8.97;8.13;;;;;;;;;;5067640;28;20190;-75
2022/07/25 07:42:20;;;;;;;9.13;8.10;;;;;;;;;;5069191;28;20214;-77
2022/07/25 07:44:46;;;;;;;9.20;8.33;;;;;;;;;;5063012;28;20185;-76
2022/07/25 07:47:12;;;;;;;8.83;7.93;;;;;;;;;;5067162;28;20222;-76
2022/07/25 07:49:39;;;;;;;9.13;8.23;;;;;;;;;;5067644;28;20290;-76
2022/07/25 07:52:05;;;;;;;9.20;8.30;;;;;;;;;;5065155;28;20181;-76
2022/07/25 07:57:16;;;;;;;9.47;8.57;;;;;;;;;;5064578;28;20728;-76
2022/07/25 07:59:43;;;;;;;8.80;8.00;;;;;;;;;;5062772;28;20215;-76
2022/07/25 08:02:09;;;;;;;9.30;8.30;;;;;;;;;;5062842;28;20181;-75
2022/07/25 08:04:35;;;;;;;8.80;8.10;;;;;;;;;;5067539;28;20568;-76
2022/07/25 08:07:01;;;;;;;9.43;8.47;;;;;;;;;;5070602;28;20184;-76
2022/07/25 08:09:27;;;;;;;8.63;7.83;;;;;;;;;;5068378;28;20208;-76
2022/07/25 08:11:53;;;;;;;9.63;8.63;;;;;;;;;;5069903;28;20192;-76
2022/07/25 08:14:19;;;;;;;9.53;8.17;;;;;;;;;;5059943;28;20213;-76
2022/07/25 08:16:45;;;;;;;8.53;7.70;;;;;;;;;;5056158;28;20175;-81
2022/07/25 08:19:12;;;;;;;8.53;7.73;;;;;;;;;;5075952;28;20180;-78
2022/07/25 08:21:38;;;;;;;9.20;8.30;;;;;;;;;;5067432;28;20677;-78
2022/07/25 08:24:05;;;;;;;8.93;8.07;;;;;;;;;;5075741;28;20201;-73
2022/07/25 08:26:32;;;;;;;9.70;8.17;;;;;;;;;;5059906;28;20185;-73
2022/07/25 08:28:58;;;;;;;9.57;8.67;;;;;;;;;;5076803;28;20254;-72
2022/07/25 08:31:26;;;;;;;9.03;8.23;;;;;;;;;;5058983;28;20264;-73
2022/07/25 08:33:52;;;;;;;10.70;8.13;;;;;;;;;;5070230;28;20201;-73
2022/07/25 08:36:19;;;;;;;9.60;8.67;;;;;;;;;;5071512;28;20176;-73
2022/07/25 08:38:45;;;;;;;10.30;8.30;;;;;;;;;;5072031;28;20188;-73
2022/07/25 08:41:11;;;;;;;10.60;9.00;;;;;;;;;;5066687;28;20185;-73
2022/07/25 08:43:38;;;;;;;8.77;7.93;;;;;;;;;;5067715;28;20208;-73
2022/07/25 08:46:05;;;;;;;9.70;8.70;;;;;;;;;;5064342;28;20269;-73
2022/07/25 08:48:31;;;;;;;9.50;8.57;;;;;;;;;;5066677;28;20177;-73
2022/07/25 08:50:59;;;;;;;9.30;8.30;;;;;;;;;;5059963;28;20266;-74
2022/07/25 08:53:26;;;;;;;8.97;8.13;;;;;;;;;;5072060;28;20208;-73
2022/07/25 08:55:52;;;;;;;10.40;9.13;;;;;;;;;;5060299;28;22286;-73
2022/07/25 08:58:18;;;;;;;9.40;8.60;;;;;;;;;;5085783;28;20194;-73
2022/07/25 09:00:45;;;;;;;8.53;7.83;;;;;;;;;;5067459;28;20674;-74
2022/07/25 09:03:12;;;;;;;9.67;8.87;;;;;;;;;;5069106;28;20200;-73
2022/07/25 09:05:39;;;;;;;8.87;8.07;;;;;;;;;;5059014;28;20177;-74
2022/07/25 09:08:06;;;;;;;8.87;8.07;;;;;;;;;;5075349;28;20184;-81
2022/07/25 09:10:34;;;;;;;9.50;8.10;;;;;;;;;;5076483;28;20715;-77
2022/07/25 09:13:09;;;;;;;8.73;7.93;;;;;;;;;;5073762;28;20204;-73
2022/07/25 09:15:37;;;;;;;8.60;7.90;;;;;;;;;;5070316;28;20272;-73
2022/07/25 09:18:04;;;;;;;8.87;8.07;;;;;;;;;;5068148;28;20280;-73
2022/07/25 09:20:50;;;;;;;10.80;8.30;;;;;;;;;;5069139;28;20871;-74
2022/07/25 09:23:27;;;;;;;8.50;7.80;;;;;;;;;;5062540;28;20606;-73
2022/07/25 09:26:10;;;;;;;8.87;8.07;;;;;;;;;;5071577;28;20181;-74
2022/07/25 09:28:41;;;;;;;7.77;7.17;;;;;;;;;;5071302;28;20555;-74
2022/07/25 09:31:08;;;;;;;8.57;7.80;;;;;;;;;;5063376;28;20202;-74
2022/07/25 09:33:43;;;;;;;8.87;8.07;;;;;;;;;;5062929;28;20212;-74
2022/07/25 09:36:10;;;;;;;10.37;7.67;;;;;;;;;;5060446;28;20192;-79
2022/07/25 09:38:37;;;;;;;8.63;7.73;;;;;;;;;;5068241;28;20201;-77
2022/07/25 09:41:03;;;;;;;9.13;8.43;;;;;;;;;;5060678;28;20844;-73
2022/07/25 09:43:39;;;;;;;8.57;7.70;;;;;;;;;;5068341;28;20208;-73
2022/07/25 09:46:05;;;;;;;9.07;8.13;;;;;;;;;;5062756;28;20187;-74
2022/07/25 09:48:32;;;;;;;10.23;8.07;;;;;;;;;;5059318;28;20646;-73
2022/07/25 09:50:58;;;;;;;8.13;7.53;;;;;;;;;;5065478;28;20247;-74
2022/07/25 09:53:25;;;;;;;8.80;8.00;;;;;;;;;;5064820;28;20205;-74
2022/07/25 09:55:53;;;;;;;10.10;8.70;;;;;;;;;;5060923;28;20183;-74
2022/07/25 09:58:20;;;;;;;8.40;7.70;;;;;;;;;;5061304;28;20216;-76
2022/07/25 10:00:46;;;;;;;9.13;8.00;;;;;;;;;;5056419;28;20196;-75
2022/07/25 10:03:22;;;;;;;8.23;7.53;;;;;;;;;;5057259;28;20671;-75
2022/07/25 10:05:57;;;;;;;8.20;7.50;;;;;;;;;;5061818;28;20225;-74
2022/07/25 10:08:23;;;;;;;8.40;7.70;;;;;;;;;;5059279;28;20189;-74
2022/07/25 10:10:50;;;;;;;8.60;7.80;;;;;;;;;;5064224;28;20217;-74
2022/07/25 10:13:27;;;;;;;8.53;7.60;;;;;;;;;;5064237;28;20814;-75
2022/07/25 10:15:53;;;;;;;8.37;7.67;;;;;;;;;;5069324;28;20184;-76
2022/07/25 10:18:27;;;;;;;8.77;7.83;;;;;;;;;;5058045;28;20194;-77
2022/07/25 10:20:56;;;;;;;9.00;7.87;;;;;;;;;;5066191;28;20265;-73
2022/07/25 10:23:23;;;;;;;9.27;7.80;;;;;;;;;;5062821;28;20208;-77
2022/07/25 10:26:03;;;;;;;8.90;8.10;;;;;;;;;;5068964;28;20197;-75
2022/07/25 10:28:36;;;;;;;7.90;7.30;;;;;;;;;;5062091;28;20272;-75
2022/07/25 10:31:02;;;;;;;8.50;7.70;;;;;;;;;;5058177;28;20635;-74
2022/07/25 10:33:28;;;;;;;8.47;7.50;;;;;;;;;;5067878;28;20210;-75
2022/07/25 10:36:05;;;;;;;7.93;7.33;;;;;;;;;;5066989;28;20261;-75
2022/07/25 10:38:32;;;;;;;7.97;7.27;;;;;;;;;;5065360;28;20188;-75
2022/07/25 10:41:02;;;;;;;8.73;7.60;;;;;;;;;;5068418;28;20175;-74
2022/07/25 10:43:28;;;;;;;7.73;7.03;;;;;;;;;;5063072;28;20202;-75
2022/07/25 10:45:56;;;;;;;9.00;7.93;;;;;;;;;;5063950;28;20626;-75
2022/07/25 10:48:27;;;;;;;8.37;7.57;;;;;;;;;;5061709;28;20208;-75
2022/07/25 10:50:56;;;;;;;7.63;6.80;;;;;;;;;;5057923;28;21041;-75
2022/07/25 10:53:32;;;;;;;8.10;7.43;;;;;;;;;;5066210;28;20262;-74
2022/07/25 10:56:03;;;;;;;7.33;6.73;;;;;;;;;;5070004;28;20187;-75
2022/07/25 10:58:42;;;;;;;7.97;7.17;;;;;;;;;;5063940;28;20195;-76
2022/07/25 11:01:09;;;;;;;7.83;7.13;;;;;;;;;;5059867;28;20786;-76
2022/07/25 11:03:35;;;;;;;8.23;7.50;;;;;;;;;;5056711;28;20202;-73
2022/07/25 11:06:01;;;;;;;8.10;7.40;;;;;;;;;;5063213;28;20222;-75
2022/07/25 11:08:31;;;;;;;7.90;7.20;;;;;;;;;;5063425;28;20189;-75
2022/07/25 11:10:57;;;;;;;8.07;7.30;;;;;;;;;;5058674;28;20745;-82
2022/07/25 11:13:24;;;;;;;7.70;7.10;;;;;;;;;;5064113;28;20339;-78
2022/07/25 11:15:50;;;;;;;7.60;6.80;;;;;;;;;;5065140;28;20189;-77
2022/07/25 11:18:17;;;;;;;7.60;7.00;;;;;;;;;;5068365;28;20657;-78
2022/07/25 11:20:43;;;;;;;7.53;6.83;;;;;;;;;;5066858;28;20191;-76
2022/07/25 11:23:09;;;;;;;7.33;6.77;;;;;;;;;;5076105;28;20233;-75
2022/07/25 11:25:36;;;;;;;7.60;7.00;;;;;;;;;;5070608;28;20200;-78
2022/07/25 11:28:02;;;;;;;8.30;7.50;;;;;;;;;;5080697;28;20192;-77
2022/07/25 11:30:29;;;;;;;8.20;7.50;;;;;;;;;;5076419;28;20187;-75
2022/07/25 11:32:56;;;;;;;7.50;6.90;;;;;;;;;;5059235;28;20204;-76
2022/07/25 11:35:27;;;;;;;7.77;7.17;;;;;;;;;;5062817;28;20188;-77
2022/07/25 11:37:54;;;;;;;9.47;7.20;;;;;;;;;;5086121;28;20245;-77
2022/07/25 11:40:21;;;;;;;7.47;6.70;;;;;;;;;;5067471;28;20184;-77
2022/07/25 11:42:51;;;;;;;6.87;6.37;;;;;;;;;;5066868;28;20241;-77
2022/07/25 11:45:18;;;;;;;7.50;6.90;;;;;;;;;;5062433;28;20666;-77
2022/07/25 11:47:44;;;;;;;7.23;6.73;;;;;;;;;;5063771;28;20218;-76
2022/07/25 11:50:13;;;;;;;7.53;6.83;;;;;;;;;;5060736;28;20181;-76
2022/07/25 11:52:44;;;;;;;8.40;7.70;;;;;;;;;;5064456;28;20214;-76
2022/07/25 11:55:16;;;;;;;8.37;7.57;;;;;;;;;;5061748;28;20212;-76
2022/07/25 11:57:44;;;;;;;8.00;7.40;;;;;;;;;;5060569;28;20180;-78
2022/07/25 12:00:18;;;;;;;8.50;7.80;;;;;;;;;;5062853;28;20205;-78
2022/07/25 12:02:44;;;;;;;7.67;6.90;;;;;;;;;;5063114;28;20197;-76
2022/07/25 12:05:11;;;;;;;7.83;7.17;;;;;;;;;;5079610;28;20184;-78
2022/07/25 12:07:45;;;;;;;7.90;7.27;;;;;;;;;;5080510;28;20202;-76
2022/07/25 12:10:15;;;;;;;8.10;7.47;;;;;;;;;;5064782;28;20199;-77
2022/07/25 12:12:47;;;;;;;7.20;6.60;;;;;;;;;;5060127;28;20695;-76
2022/07/25 12:15:14;;;;;;;8.20;7.50;;;;;;;;;;5070372;28;20216;-77
2022/07/25 12:17:40;;;;;;;7.83;7.13;;;;;;;;;;5090318;28;20180;-76
2022/07/25 12:20:17;;;;;;;7.23;6.67;;;;;;;;;;5074722;28;20162;-77
2022/07/25 12:22:43;;;;;;;7.70;7.10;;;;;;;;;;5064812;28;20291;-77
2022/07/25 12:25:10;;;;;;;7.20;6.60;;;;;;;;;;5074614;28;20186;-76
2022/07/25 12:27:36;;;;;;;7.40;6.80;;;;;;;;;;5071376;28;20205;-76
2022/07/25 12:30:03;;;;;;;7.43;6.77;;;;;;;;;;5080476;28;20175;-76
2022/07/25 12:32:29;;;;;;;7.03;6.53;;;;;;;;;;5068693;28;20228;-77
2022/07/25 12:34:58;;;;;;;6.90;6.30;;;;;;;;;;5077448;28;20298;-77
2022/07/25 12:37:25;;;;;;;7.07;6.57;;;;;;;;;;5076033;28;20268;-77
2022/07/25 12:39:52;;;;;;;6.70;6.10;;;;;;;;;;5059208;28;20178;-77
2022/07/25 12:42:18;;;;;;;7.20;6.60;;;;;;;;;;5083967;28;20200;-77
2022/07/25 12:44:44;;;;;;;10.10;7.03;;;;;;;;;;5081965;28;20215;-77
2022/07/25 12:47:11;;;;;;;6.70;6.20;;;;;;;;;;5069284;28;20596;-76
2022/07/25 12:49:37;;;;;;;7.00;6.40;;;;;;;;;;5074181;28;20664;-76
2022/07/25 12:52:04;;;;;;;8.50;6.70;;;;;;;;;;5058969;28;20192;-77
2022/07/25 12:54:30;;;;;;;7.30;6.60;;;;;;;;;;5073769;28;20207;-77
2022/07/25 12:56:56;;;;;;;6.87;6.27;;;;;;;;;;5068586;28;20296;-77
2022/07/25 12:59:22;;;;;;;7.57;6.97;;;;;;;;;;5054071;28;20174;-76
2022/07/25 13:01:49;;;;;;;7.90;7.10;;;;;;;;;;5078068;28;20197;-76
2022/07/25 13:04:15;;;;;;;7.90;7.10;;;;;;;;;;5090839;28;20564;-76
2022/07/25 13:06:41;;;;;;;7.80;7.10;;;;;;;;;;5090192;28;20612;-76
2022/07/25 13:09:07;;;;;;;9.30;6.10;;;;;;;;;;5077698;28;20265;-77
2022/07/25 13:11:33;;;;;;;7.37;6.80;;;;;;;;;;5063818;28;20264;-76
2022/07/25 13:13:59;;;;;;;7.47;6.77;;;;;;;;;;5094038;28;20270;-76
2022/07/25 13:16:26;;;;;;;7.50;6.90;;;;;;;;;;5092688;28;20168;-76
2022/07/25 13:18:52;;;;;;;7.50;6.90;;;;;;;;;;5080527;28;20177;-76
2022/07/25 13:21:19;;;;;;;7.80;7.10;;;;;;;;;;5070542;28;20229;-77
2022/07/25 13:23:46;;;;;;;8.00;7.17;;;;;;;;;;5069456;28;20198;-76
2022/07/25 13:26:12;;;;;;;7.77;7.07;;;;;;;;;;5073619;28;20184;-76
2022/07/25 13:28:38;;;;;;;7.73;7.03;;;;;;;;;;5073363;28;20178;-76
2022/07/25 13:31:05;;;;;;;7.73;7.13;;;;;;;;;;5072866;28;20185;-76
2022/07/25 13:33:32;;;;;;;7.73;7.03;;;;;;;;;;5061396;28;20219;-76
2022/07/25 13:35:58;;;;;;;7.47;6.87;;;;;;;;;;5053063;28;20566;-76
2022/07/25 13:38:25;;;;;;;7.20;6.50;;;;;;;;;;5053019;28;20176;-76
2022/07/25 13:40:51;;;;;;;6.63;6.03;;;;;;;;;;5056455;28;20174;-75
2022/07/25 13:43:17;;;;;;;6.77;5.77;;;;;;;;;;5069646;28;20710;-75
2022/07/25 13:45:43;;;;;;;6.80;6.20;;;;;;;;;;5066790;28;20189;-74
2022/07/25 13:48:10;;;;;;;6.63;6.13;;;;;;;;;;5072733;28;20185;-74
2022/07/25 13:50:36;;;;;;;6.37;5.70;;;;;;;;;;5072242;28;20286;-74
2022/07/25 13:53:04;;;;;;;6.60;6.10;;;;;;;;;;5070425;28;20773;-75
2022/07/25 13:55:31;;;;;;;5.80;5.27;;;;;;;;;;5056152;28;20692;-75
2022/07/25 13:57:57;;;;;;;6.57;5.90;;;;;;;;;;5064552;28;20607;-75
2022/07/25 14:00:23;;;;;;;6.87;6.13;;;;;;;;;;5071158;28;20180;-75
2022/07/25 14:02:50;;;;;;;6.97;6.30;;;;;;;;;;5080546;28;20231;-75
2022/07/25 14:05:16;;;;;;;6.63;6.00;;;;;;;;;;5073513;28;20173;-75
2022/07/25 14:07:42;;;;;;;6.20;5.70;;;;;;;;;;5088282;28;20186;-75
2022/07/25 14:10:09;;;;;;;6.87;6.27;;;;;;;;;;5080647;28;21194;-75
2022/07/25 14:12:38;;;;;;;6.23;5.70;;;;;;;;;;5078628;28;20198;-75
2022/07/25 14:15:05;;;;;;;7.30;6.53;;;;;;;;;;5092736;28;20280;-75
2022/07/25 14:17:32;;;;;;;7.53;6.00;;;;;;;;;;5089071;28;20658;-75
2022/07/25 14:19:58;;;;;;;6.83;6.23;;;;;;;;;;5058079;28;20653;-75
2022/07/25 14:22:24;;;;;;;6.43;5.83;;;;;;;;;;5071948;28;20211;-75
2022/07/25 14:24:50;;;;;;;6.43;5.93;;;;;;;;;;5072533;28;20171;-74
2022/07/25 14:27:17;;;;;;;7.13;6.10;;;;;;;;;;5055928;28;20183;-75
2022/07/25 14:29:44;;;;;;;7.00;6.47;;;;;;;;;;5051185;28;20274;-75
2022/07/25 14:32:10;;;;;;;6.43;5.73;;;;;;;;;;5059159;28;20184;-75
2022/07/25 14:34:36;;;;;;;6.80;6.10;;;;;;;;;;5080915;28;20189;-75
2022/07/25 14:37:04;;;;;;;8.87;5.57;;;;;;;;;;5067164;28;20180;-76
2022/07/25 14:39:30;;;;;;;7.93;6.03;;;;;;;;;;5061424;28;20233;-76
2022/07/25 14:41:58;;;;;;;6.60;6.10;;;;;;;;;;5086230;28;20183;-76